Time;durP1;ratioP1;P1;durP2;ratioP2;P2;SDS_P1;SDS_P2;PMS_P1;PMS_P2;Temp;Humidity;BMP_temperature;BMP_pressure;BME280_temperature;BME280_humidity;BME280_pressure;Samples;Min_cycle;Max_cycle;Signal;HPM_P1;HPM_P2
2021/01/07 00:00:51;;;;;;;11.77;8.30;;;0.70;99.90;;;;;;5082812;28;20040;-70
2021/01/07 00:03:17;;;;;;;10.13;7.40;;;0.70;99.90;;;;;;5085783;28;20052;-70
2021/01/07 00:05:42;;;;;;;9.95;7.20;;;0.70;99.90;;;;;;5081460;28;20032;-72
2021/01/07 00:08:08;;;;;;;9.52;6.32;;;0.70;99.90;;;;;;5080842;28;20592;-74
2021/01/07 00:10:34;;;;;;;10.40;6.95;;;0.70;99.90;;;;;;5082504;28;20031;-71
2021/01/07 00:12:59;;;;;;;10.10;6.95;;;0.70;99.90;;;;;;5082293;28;20028;-75
2021/01/07 00:15:25;;;;;;;10.23;6.97;;;0.70;99.90;;;;;;5081064;28;20025;-73
2021/01/07 00:17:51;;;;;;;8.07;6.35;;;0.70;99.90;;;;;;5072527;28;20024;-68
2021/01/07 00:20:17;;;;;;;12.45;7.05;;;0.70;99.90;;;;;;5082637;28;20120;-72
2021/01/07 00:22:42;;;;;;;10.05;7.43;;;0.70;99.90;;;;;;5081805;28;20388;-70
2021/01/07 00:25:09;;;;;;;10.98;7.70;;;0.70;99.90;;;;;;5081220;28;20532;-72
2021/01/07 00:27:35;;;;;;;9.75;7.45;;;0.70;99.90;;;;;;5083051;28;20012;-72
2021/01/07 00:30:04;;;;;;;10.27;7.25;;;0.70;99.90;;;;;;5081333;28;20028;-71
2021/01/07 00:32:30;;;;;;;10.02;7.45;;;0.70;99.90;;;;;;5069406;28;20028;-71
2021/01/07 00:34:55;;;;;;;10.80;6.55;;;0.70;99.90;;;;;;5081339;28;20028;-71
2021/01/07 00:37:21;;;;;;;9.90;7.18;;;0.70;99.90;;;;;;5083136;28;20035;-73
2021/01/07 00:39:47;;;;;;;10.85;7.60;;;0.60;99.90;;;;;;5081046;28;20478;-69
2021/01/07 00:42:15;;;;;;;9.95;7.18;;;0.60;99.90;;;;;;5081866;28;20085;-71
2021/01/07 00:44:41;;;;;;;13.60;7.40;;;0.60;99.90;;;;;;5083431;28;20083;-70
2021/01/07 00:47:06;;;;;;;10.05;6.88;;;0.60;99.90;;;;;;5070699;28;20052;-70
2021/01/07 00:49:32;;;;;;;11.23;8.13;;;0.60;99.90;;;;;;5082685;28;20024;-71
2021/01/07 00:51:58;;;;;;;10.55;7.78;;;0.60;99.90;;;;;;5081399;28;20024;-70
2021/01/07 00:54:24;;;;;;;12.35;8.77;;;0.60;99.90;;;;;;5080804;28;20028;-70
2021/01/07 00:56:49;;;;;;;14.15;8.25;;;0.60;99.90;;;;;;5084017;28;20373;-69
2021/01/07 00:59:15;;;;;;;11.38;8.32;;;0.60;99.90;;;;;;5077765;28;20032;-73
2021/01/07 01:01:48;;;;;;;11.82;8.65;;;0.60;99.90;;;;;;5085496;28;20020;-71
2021/01/07 01:04:14;;;;;;;12.88;8.45;;;0.60;99.90;;;;;;5081362;28;20045;-69
2021/01/07 01:06:41;;;;;;;12.23;8.98;;;0.60;99.90;;;;;;5083434;28;20020;-72
2021/01/07 01:09:08;;;;;;;13.25;8.85;;;0.60;99.90;;;;;;5079127;28;20013;-70
2021/01/07 01:11:47;;;;;;;14.75;9.10;;;0.60;99.90;;;;;;5082016;28;20028;-72
2021/01/07 01:14:14;;;;;;;15.18;9.45;;;0.60;99.90;;;;;;5080871;28;20032;-71
2021/01/07 01:16:40;;;;;;;13.68;9.57;;;0.60;99.90;;;;;;5081002;28;20024;-72
2021/01/07 01:19:06;;;;;;;14.07;9.40;;;0.60;99.90;;;;;;5081491;28;20035;-72
2021/01/07 01:21:32;;;;;;;16.00;10.07;;;0.60;99.90;;;;;;5081945;28;20032;-71
2021/01/07 01:23:58;;;;;;;14.63;9.73;;;0.60;99.90;;;;;;5081088;28;20029;-72
2021/01/07 01:26:24;;;;;;;13.85;9.05;;;0.60;99.90;;;;;;5080173;28;20032;-71
2021/01/07 01:28:49;;;;;;;14.52;9.75;;;0.60;99.90;;;;;;5082924;28;20480;-69
2021/01/07 01:31:15;;;;;;;14.60;10.88;;;0.60;99.90;;;;;;5080887;28;20020;-70
2021/01/07 01:33:41;;;;;;;14.23;10.05;;;0.60;99.90;;;;;;5082502;28;20028;-72
2021/01/07 01:36:07;;;;;;;14.57;9.77;;;0.60;99.90;;;;;;5079197;28;20235;-74
2021/01/07 01:38:33;;;;;;;12.30;8.95;;;0.60;99.90;;;;;;5081639;28;20019;-71
2021/01/07 01:41:06;;;;;;;15.32;10.15;;;0.60;99.90;;;;;;5080859;28;20060;-73
2021/01/07 01:43:35;;;;;;;14.52;8.63;;;0.60;99.90;;;;;;5080244;28;20389;-71
2021/01/07 01:46:04;;;;;;;14.38;9.52;;;0.60;99.90;;;;;;5079641;28;20024;-72
2021/01/07 01:48:30;;;;;;;14.38;9.65;;;0.60;99.90;;;;;;5079740;28;20028;-75
2021/01/07 01:50:58;;;;;;;12.63;9.50;;;0.60;99.90;;;;;;5079094;28;20029;-71
2021/01/07 01:53:24;;;;;;;13.45;9.45;;;0.50;99.90;;;;;;5080965;28;20491;-72
2021/01/07 01:55:50;;;;;;;13.07;9.38;;;0.60;99.90;;;;;;5062727;28;20024;-69
2021/01/07 01:58:16;;;;;;;12.43;8.75;;;0.60;99.90;;;;;;5081365;28;20016;-72
2021/01/07 02:00:42;;;;;;;14.15;9.55;;;0.60;99.90;;;;;;5076309;28;20066;-71
2021/01/07 02:03:08;;;;;;;14.43;9.95;;;0.50;99.90;;;;;;5079623;28;20044;-74
2021/01/07 02:05:36;;;;;;;15.52;9.35;;;0.60;99.90;;;;;;5064602;28;20028;-76
2021/01/07 02:08:03;;;;;;;15.52;9.20;;;0.60;99.90;;;;;;5079224;28;20473;-73
2021/01/07 02:10:30;;;;;;;13.60;9.43;;;0.60;99.90;;;;;;5079674;28;20020;-71
2021/01/07 02:12:57;;;;;;;14.38;9.30;;;0.50;99.90;;;;;;5081067;28;20361;-72
2021/01/07 02:15:22;;;;;;;16.60;9.20;;;0.60;99.90;;;;;;5079994;28;20114;-71
2021/01/07 02:17:48;;;;;;;13.10;9.00;;;0.60;99.90;;;;;;5080310;28;20350;-68
2021/01/07 02:20:21;;;;;;;17.88;9.23;;;0.60;99.90;;;;;;5080889;28;20499;-72
2021/01/07 02:22:51;;;;;;;17.55;10.63;;;0.60;99.90;;;;;;5080657;28;20024;-74
2021/01/07 02:25:17;;;;;;;13.32;8.95;;;0.60;99.90;;;;;;5079153;28;20016;-73
2021/01/07 02:27:42;;;;;;;13.13;8.77;;;0.60;99.90;;;;;;5081659;28;20530;-72
2021/01/07 02:30:08;;;;;;;12.98;9.35;;;0.60;99.90;;;;;;5079531;28;20039;-73
2021/01/07 02:32:34;;;;;;;13.05;8.68;;;0.60;99.90;;;;;;5063433;28;20385;-73
2021/01/07 02:35:00;;;;;;;13.05;9.07;;;0.60;99.90;;;;;;5060929;28;20020;-72
2021/01/07 02:37:25;;;;;;;12.38;8.43;;;0.60;99.90;;;;;;5080379;28;20103;-73
2021/01/07 02:39:51;;;;;;;12.20;8.27;;;0.60;99.90;;;;;;5083270;28;20434;-68
2021/01/07 02:42:16;;;;;;;13.25;9.20;;;0.60;99.90;;;;;;5091639;28;20456;-72
2021/01/07 02:44:42;;;;;;;12.95;8.77;;;0.60;99.90;;;;;;5091689;28;20036;-72
2021/01/07 02:47:08;;;;;;;12.43;8.40;;;0.60;99.90;;;;;;5090837;28;20208;-73
2021/01/07 02:49:33;;;;;;;14.35;8.82;;;0.60;99.90;;;;;;5091328;28;20032;-73
2021/01/07 02:51:59;;;;;;;11.98;7.60;;;0.60;99.90;;;;;;5090994;28;20028;-73
2021/01/07 02:54:24;;;;;;;14.68;8.88;;;0.60;99.90;;;;;;5073662;28;20024;-71
2021/01/07 02:56:50;;;;;;;11.88;8.40;;;0.50;99.90;;;;;;5088321;28;20042;-68
2021/01/07 02:59:16;;;;;;;12.90;8.93;;;0.50;99.90;;;;;;5088240;28;20054;-73
2021/01/07 03:01:41;;;;;;;11.77;8.57;;;0.50;99.90;;;;;;5091017;28;20020;-73
2021/01/07 03:04:08;;;;;;;12.95;8.88;;;0.50;99.90;;;;;;5090955;28;20052;-73
2021/01/07 03:06:33;;;;;;;13.02;7.95;;;0.50;99.90;;;;;;5089903;28;20480;-73
2021/01/07 03:08:59;;;;;;;12.60;8.07;;;0.50;99.90;;;;;;5070389;28;20025;-75
2021/01/07 03:11:25;;;;;;;12.07;7.80;;;0.50;99.90;;;;;;5071356;28;20063;-73
2021/01/07 03:13:50;;;;;;;9.60;7.03;;;0.50;99.90;;;;;;5071085;28;20067;-69
2021/01/07 03:16:16;;;;;;;10.02;6.85;;;0.50;99.90;;;;;;5070625;28;20024;-72
2021/01/07 03:18:42;;;;;;;9.88;7.05;;;0.50;99.90;;;;;;5071279;28;20485;-73
2021/01/07 03:21:07;;;;;;;10.00;6.82;;;0.50;99.90;;;;;;5052051;28;20082;-72
2021/01/07 03:23:33;;;;;;;8.77;6.30;;;0.40;99.90;;;;;;5070776;28;20052;-72
2021/01/07 03:25:59;;;;;;;9.75;6.75;;;0.40;99.90;;;;;;5070437;28;20099;-73
2021/01/07 03:28:25;;;;;;;9.95;7.32;;;0.40;99.90;;;;;;5070719;28;20052;-71
2021/01/07 03:30:51;;;;;;;10.60;6.75;;;0.40;99.90;;;;;;5070706;28;20029;-68
2021/01/07 03:33:17;;;;;;;9.23;6.15;;;0.40;99.90;;;;;;5074648;28;20028;-73
2021/01/07 03:35:42;;;;;;;8.52;6.00;;;0.40;99.90;;;;;;5074861;28;20362;-72
2021/01/07 03:38:08;;;;;;;11.43;7.18;;;0.40;99.90;;;;;;5073843;28;20043;-74
2021/01/07 03:40:34;;;;;;;11.82;6.88;;;0.40;99.90;;;;;;5074656;28;20454;-72
2021/01/07 03:42:59;;;;;;;7.57;5.60;;;0.30;99.90;;;;;;5056062;28;20037;-70
2021/01/07 03:45:25;;;;;;;6.85;4.88;;;0.30;99.90;;;;;;5074184;28;20071;-73
2021/01/07 03:47:51;;;;;;;7.25;5.18;;;0.40;99.90;;;;;;5073899;28;20052;-68
2021/01/07 03:50:16;;;;;;;6.28;4.80;;;0.40;99.90;;;;;;5056004;28;20090;-71
2021/01/07 03:52:42;;;;;;;6.60;4.70;;;0.40;99.90;;;;;;5074299;28;20025;-72
2021/01/07 03:55:08;;;;;;;10.30;6.07;;;0.40;99.90;;;;;;5073347;28;20044;-72
2021/01/07 03:57:34;;;;;;;6.50;4.82;;;0.40;99.90;;;;;;5070170;28;20032;-73
2021/01/07 04:00:00;;;;;;;7.55;5.22;;;0.40;99.90;;;;;;5072825;28;20461;-72
2021/01/07 04:02:25;;;;;;;6.85;5.38;;;0.40;99.90;;;;;;5056123;28;20041;-71
2021/01/07 04:04:51;;;;;;;8.20;5.32;;;0.40;99.90;;;;;;5056134;28;20082;-68
2021/01/07 04:07:16;;;;;;;7.57;4.97;;;0.50;99.90;;;;;;5080956;28;20048;-71
2021/01/07 04:09:42;;;;;;;6.80;5.00;;;0.40;99.90;;;;;;5094662;28;20106;-72
2021/01/07 04:12:08;;;;;;;7.25;5.18;;;0.40;99.90;;;;;;5093642;28;20106;-70
2021/01/07 04:14:33;;;;;;;6.22;4.43;;;0.40;99.90;;;;;;5094302;28;20062;-71
2021/01/07 04:17:00;;;;;;;6.65;4.55;;;0.40;99.90;;;;;;5093488;28;20024;-72
2021/01/07 04:19:26;;;;;;;8.10;5.30;;;0.40;99.90;;;;;;5093993;28;20112;-72
2021/01/07 04:21:52;;;;;;;6.43;4.65;;;0.40;99.90;;;;;;5094255;28;20052;-67
2021/01/07 04:24:18;;;;;;;7.55;5.20;;;0.40;99.90;;;;;;5093663;28;20073;-71
2021/01/07 04:26:44;;;;;;;6.57;5.20;;;0.40;99.90;;;;;;5089469;28;20020;-71
2021/01/07 04:29:11;;;;;;;6.63;4.82;;;0.40;99.90;;;;;;5073222;28;20143;-71
2021/01/07 04:31:36;;;;;;;7.40;4.35;;;0.40;99.90;;;;;;5073507;28;20333;-71
2021/01/07 04:34:02;;;;;;;8.50;4.93;;;0.40;99.90;;;;;;5073209;28;20082;-71
2021/01/07 04:36:28;;;;;;;7.18;4.85;;;0.40;99.90;;;;;;5073374;28;20054;-70
2021/01/07 04:38:54;;;;;;;5.68;4.50;;;0.40;99.90;;;;;;5055035;28;20029;-68
2021/01/07 04:41:21;;;;;;;7.45;4.53;;;0.50;99.90;;;;;;5073351;28;20037;-72
2021/01/07 04:43:53;;;;;;;6.15;4.47;;;0.50;99.90;;;;;;5073385;28;20036;-73
2021/01/07 04:46:19;;;;;;;6.85;4.43;;;0.50;99.90;;;;;;5073358;28;20450;-72
2021/01/07 04:48:47;;;;;;;7.25;4.72;;;0.50;99.90;;;;;;5073162;28;20055;-71
2021/01/07 04:51:12;;;;;;;7.30;5.20;;;0.50;99.90;;;;;;5072851;28;20093;-72
2021/01/07 04:53:38;;;;;;;7.18;5.13;;;0.50;99.90;;;;;;5073290;28;20038;-71
2021/01/07 04:56:03;;;;;;;8.57;5.65;;;0.40;99.90;;;;;;5072278;28;20112;-73
2021/01/07 04:58:30;;;;;;;8.73;6.00;;;0.40;99.90;;;;;;5084056;28;20030;-70
2021/01/07 05:00:56;;;;;;;8.88;6.18;;;0.40;99.90;;;;;;5092216;28;20024;-68
2021/01/07 05:03:22;;;;;;;8.40;5.57;;;0.40;99.90;;;;;;5093129;28;20097;-73
2021/01/07 05:05:53;;;;;;;9.38;6.28;;;0.40;99.90;;;;;;5093244;28;20107;-71
2021/01/07 05:08:19;;;;;;;9.45;6.05;;;0.40;99.90;;;;;;5076773;28;20017;-72
2021/01/07 05:10:50;;;;;;;11.02;6.47;;;0.40;99.90;;;;;;5072681;28;20059;-69
2021/01/07 05:13:17;;;;;;;10.43;6.43;;;0.40;99.90;;;;;;5072153;28;20032;-69
2021/01/07 05:15:42;;;;;;;8.65;5.97;;;0.40;99.90;;;;;;5072755;28;20016;-71
2021/01/07 05:18:08;;;;;;;10.73;7.03;;;0.30;99.90;;;;;;5071854;28;20500;-70
2021/01/07 05:20:35;;;;;;;10.95;6.88;;;0.30;99.90;;;;;;5072437;28;20492;-69
2021/01/07 05:23:02;;;;;;;9.13;6.50;;;0.40;99.90;;;;;;5071928;28;20029;-72
2021/01/07 05:25:29;;;;;;;11.43;7.05;;;0.40;99.90;;;;;;5072698;28;20032;-70
2021/01/07 05:28:04;;;;;;;11.88;7.78;;;0.40;99.90;;;;;;5078545;28;20512;-67
2021/01/07 05:30:32;;;;;;;10.60;7.18;;;0.30;99.90;;;;;;5088763;28;20495;-70
2021/01/07 05:33:09;;;;;;;10.63;7.15;;;0.40;99.90;;;;;;5091619;28;20124;-70
2021/01/07 05:35:36;;;;;;;11.48;7.20;;;0.40;99.90;;;;;;5092842;28;20024;-70
2021/01/07 05:38:06;;;;;;;9.07;6.45;;;0.40;99.90;;;;;;5091874;28;20088;-70
2021/01/07 05:40:35;;;;;;;11.02;7.68;;;0.40;99.90;;;;;;5092296;28;20040;-70
2021/01/07 05:43:11;;;;;;;11.27;7.15;;;0.30;99.90;;;;;;5091815;28;20074;-69
2021/01/07 05:45:38;;;;;;;12.32;8.13;;;0.30;99.90;;;;;;5092704;28;20082;-71
2021/01/07 05:48:04;;;;;;;13.50;8.10;;;0.30;99.90;;;;;;5073445;28;20027;-69
2021/01/07 05:50:38;;;;;;;14.80;9.18;;;0.30;99.90;;;;;;5092760;28;20031;-69
2021/01/07 05:53:04;;;;;;;14.32;8.07;;;0.30;99.90;;;;;;5073690;28;20115;-72
2021/01/07 05:55:30;;;;;;;13.15;8.13;;;0.40;99.90;;;;;;5091777;28;20045;-71
2021/01/07 05:58:01;;;;;;;14.25;8.93;;;0.40;99.90;;;;;;5091490;28;20048;-67
2021/01/07 06:00:32;;;;;;;15.63;9.70;;;0.40;99.90;;;;;;5092381;28;20373;-70
2021/01/07 06:03:02;;;;;;;15.88;9.43;;;0.40;99.90;;;;;;5091532;28;20044;-67
2021/01/07 06:05:29;;;;;;;14.70;9.27;;;0.50;99.90;;;;;;5092551;28;20031;-72
2021/01/07 06:07:56;;;;;;;15.25;8.90;;;0.40;99.90;;;;;;5091578;28;20028;-67
2021/01/07 06:10:22;;;;;;;15.02;9.90;;;0.50;99.90;;;;;;5091772;28;20157;-71
2021/01/07 06:12:48;;;;;;;16.05;9.15;;;0.50;99.90;;;;;;5092100;28;20036;-71
2021/01/07 06:15:17;;;;;;;14.07;9.20;;;0.40;99.90;;;;;;5091258;28;20040;-70
2021/01/07 06:17:44;;;;;;;16.00;10.68;;;0.40;99.90;;;;;;5073927;28;20034;-71
2021/01/07 06:20:21;;;;;;;16.95;9.13;;;0.40;99.90;;;;;;5091230;28;20036;-72
2021/01/07 06:22:53;;;;;;;17.15;9.98;;;0.40;99.90;;;;;;5091916;28;20566;-69
2021/01/07 06:25:21;;;;;;;18.05;10.27;;;0.40;99.90;;;;;;5091058;28;20032;-67
2021/01/07 06:27:48;;;;;;;16.27;9.85;;;0.40;99.90;;;;;;5076228;28;20078;-73
2021/01/07 06:30:17;;;;;;;23.85;11.60;;;0.40;99.90;;;;;;5070401;28;20211;-70
2021/01/07 06:32:44;;;;;;;18.92;10.55;;;0.40;99.90;;;;;;5071592;28;20024;-70
2021/01/07 06:35:18;;;;;;;23.05;11.93;;;0.40;99.90;;;;;;5070740;28;20028;-69
2021/01/07 06:37:48;;;;;;;17.95;10.32;;;0.40;99.90;;;;;;5071504;28;20029;-71
2021/01/07 06:40:16;;;;;;;18.60;10.40;;;0.40;99.90;;;;;;5070683;28;20070;-71
2021/01/07 06:42:50;;;;;;;17.73;10.25;;;0.40;99.90;;;;;;5071007;28;20024;-73
2021/01/07 06:45:19;;;;;;;16.55;10.57;;;0.30;99.90;;;;;;5070915;28;20643;-70
2021/01/07 06:47:46;;;;;;;16.38;9.90;;;0.30;99.90;;;;;;5071532;28;20021;-69
2021/01/07 06:50:13;;;;;;;21.85;11.40;;;0.30;99.90;;;;;;5052512;28;20059;-72
2021/01/07 06:52:44;;;;;;;18.73;11.32;;;0.30;99.90;;;;;;5071103;28;20446;-72
2021/01/07 06:55:12;;;;;;;17.67;11.07;;;0.30;99.90;;;;;;5070560;28;20021;-70
2021/01/07 06:57:56;;;;;;;17.67;10.95;;;0.30;99.90;;;;;;5076484;28;20070;-74
2021/01/07 07:00:24;;;;;;;18.02;10.93;;;0.30;99.90;;;;;;5090287;28;20474;-71
2021/01/07 07:03:01;;;;;;;17.45;11.18;;;0.30;99.90;;;;;;5091130;28;20123;-70
2021/01/07 07:05:32;;;;;;;20.92;11.57;;;0.40;99.90;;;;;;5091667;28;20020;-70
2021/01/07 07:08:11;;;;;;;21.63;11.38;;;0.30;99.90;;;;;;5063547;28;20389;-68
2021/01/07 07:10:37;;;;;;;20.60;12.10;;;0.40;99.90;;;;;;5074941;28;20025;-70
2021/01/07 07:13:19;;;;;;;22.20;12.45;;;0.40;99.90;;;;;;5072734;28;20039;-70
2021/01/07 07:15:47;;;;;;;23.13;11.68;;;0.40;99.90;;;;;;5075103;28;20540;-70
2021/01/07 07:18:23;;;;;;;18.30;11.45;;;0.40;99.90;;;;;;5073101;28;20507;-71
2021/01/07 07:20:50;;;;;;;18.63;11.13;;;0.30;99.90;;;;;;5075062;28;20052;-70
2021/01/07 07:23:20;;;;;;;21.88;12.73;;;0.30;99.90;;;;;;5078471;28;20112;-72
2021/01/07 07:25:52;;;;;;;;;;;0.30;99.90;;;;;;5075513;28;20024;-72
2021/01/07 07:28:20;;;;;;;18.65;11.75;;;0.30;99.90;;;;;;5073293;28;19957;-72
2021/01/07 07:30:47;;;;;;;20.40;12.07;;;0.30;99.90;;;;;;5074933;28;20032;-71
2021/01/07 07:33:40;;;;;;;21.10;12.13;;;0.30;99.90;;;;;;5074100;28;20025;-69
2021/01/07 07:36:09;;;;;;;19.85;11.60;;;0.30;99.90;;;;;;5074257;28;20066;-69
2021/01/07 07:38:41;;;;;;;19.17;10.85;;;0.30;99.90;;;;;;5074878;28;20385;-70
2021/01/07 07:41:09;;;;;;;21.88;12.25;;;0.30;99.90;;;;;;5073946;28;20052;-71
2021/01/07 07:43:36;;;;;;;18.70;11.73;;;0.30;99.90;;;;;;5073359;28;20044;-73
2021/01/07 07:46:04;;;;;;;22.05;12.65;;;0.30;99.90;;;;;;5073529;28;20483;-70
2021/01/07 07:48:31;;;;;;;19.95;11.95;;;0.30;99.90;;;;;;5073979;28;20407;-69
2021/01/07 07:51:13;;;;;;;19.65;12.63;;;0.30;99.90;;;;;;5073031;28;20040;-71
2021/01/07 07:53:40;;;;;;;20.23;11.75;;;0.30;99.90;;;;;;5074455;28;20366;-69
2021/01/07 07:56:25;;;;;;;20.58;12.10;;;0.40;99.90;;;;;;5081181;28;20474;-71
2021/01/07 07:59:05;;;;;;;20.58;12.88;;;0.40;99.90;;;;;;5083234;28;20036;-73
2021/01/07 08:01:49;;;;;;;23.67;14.03;;;0.40;99.90;;;;;;5081453;28;20100;-72
2021/01/07 08:04:18;;;;;;;19.08;11.80;;;0.40;99.90;;;;;;5081378;28;20505;-73
2021/01/07 08:06:46;;;;;;;20.27;11.33;;;0.50;99.90;;;;;;5084386;28;20074;-69
2021/01/07 08:09:20;;;;;;;21.45;12.10;;;0.50;99.90;;;;;;5087574;28;20039;-72
2021/01/07 08:11:51;;;;;;;22.20;13.73;;;0.50;99.90;;;;;;5074227;28;20028;-71
2021/01/07 08:14:21;;;;;;;20.85;12.63;;;0.60;99.90;;;;;;5093196;28;20032;-71
2021/01/07 08:16:49;;;;;;;20.45;12.63;;;0.60;99.90;;;;;;5093962;28;20028;-70
2021/01/07 08:19:19;;;;;;;20.90;12.40;;;0.60;99.90;;;;;;5093318;28;20032;-73
2021/01/07 08:21:47;;;;;;;22.15;12.35;;;0.70;99.90;;;;;;5094875;28;20028;-70
2021/01/07 08:24:13;;;;;;;20.60;12.10;;;0.70;99.90;;;;;;5071799;28;20028;-72
2021/01/07 08:26:40;;;;;;;19.08;12.15;;;0.80;99.90;;;;;;5092754;28;20032;-71
2021/01/07 08:29:08;;;;;;;20.42;11.98;;;0.80;99.90;;;;;;5093131;28;20029;-70
2021/01/07 08:31:37;;;;;;;21.52;12.70;;;0.90;99.90;;;;;;5075970;28;20487;-69
2021/01/07 08:34:03;;;;;;;20.83;11.03;;;0.90;99.90;;;;;;5093279;28;20469;-70
2021/01/07 08:36:31;;;;;;;20.33;12.45;;;0.90;99.90;;;;;;5093870;28;20316;-71
2021/01/07 08:38:57;;;;;;;19.48;11.30;;;0.90;99.90;;;;;;5093566;28;20039;-71
2021/01/07 08:41:22;;;;;;;19.02;11.93;;;0.90;99.90;;;;;;5092811;28;20097;-71
2021/01/07 08:43:51;;;;;;;23.63;12.90;;;0.90;99.90;;;;;;5093710;28;20419;-72
2021/01/07 08:46:23;;;;;;;21.45;12.00;;;1.00;99.90;;;;;;5092500;28;20024;-71
2021/01/07 08:49:06;;;;;;;18.38;11.13;;;1.00;99.90;;;;;;5093488;28;20545;-72
2021/01/07 08:51:41;;;;;;;22.58;12.45;;;1.10;99.90;;;;;;5093575;28;20043;-72
2021/01/07 08:54:16;;;;;;;19.35;11.38;;;1.10;99.90;;;;;;5092789;28;20032;-72
2021/01/07 08:56:49;;;;;;;18.92;11.10;;;1.20;99.90;;;;;;5089317;28;20143;-69
2021/01/07 08:59:31;;;;;;;18.33;10.82;;;1.20;99.90;;;;;;5072563;28;20052;-72
2021/01/07 09:02:06;;;;;;;18.38;10.85;;;1.30;99.90;;;;;;5072947;28;20036;-68
2021/01/07 09:04:40;;;;;;;16.63;9.93;;;1.30;99.90;;;;;;5073170;28;20052;-68
2021/01/07 09:07:14;;;;;;;14.55;9.18;;;1.30;99.90;;;;;;5078015;28;20457;-69
2021/01/07 09:09:51;;;;;;;14.82;9.40;;;1.40;99.90;;;;;;5093225;28;20032;-68
2021/01/07 09:12:31;;;;;;;16.13;8.82;;;1.40;99.90;;;;;;5074349;28;20035;-69
2021/01/07 09:15:11;;;;;;;15.75;9.05;;;1.40;99.90;;;;;;5093027;28;20043;-68
2021/01/07 09:17:55;;;;;;;12.40;8.45;;;1.40;99.90;;;;;;5093260;28;20028;-68
2021/01/07 09:20:34;;;;;;;14.05;9.07;;;1.50;99.90;;;;;;5092022;28;20664;-67
2021/01/07 09:23:11;;;;;;;14.60;8.73;;;1.50;99.90;;;;;;5092733;28;20471;-68
2021/01/07 09:25:37;;;;;;;15.55;8.50;;;1.50;99.90;;;;;;5092981;28;20465;-68
2021/01/07 09:28:04;;;;;;;12.02;8.27;;;1.60;99.90;;;;;;5081957;28;20055;-66
2021/01/07 09:30:31;;;;;;;15.43;10.13;;;1.60;99.90;;;;;;5091561;28;20028;-67
2021/01/07 09:32:57;;;;;;;13.50;9.00;;;1.60;99.90;;;;;;5093204;28;20032;-67
2021/01/07 09:35:24;;;;;;;15.35;8.73;;;1.70;99.90;;;;;;5073777;28;20583;-67
2021/01/07 09:37:50;;;;;;;14.07;8.85;;;1.70;99.90;;;;;;5074259;28;20429;-67
2021/01/07 09:40:16;;;;;;;14.23;9.02;;;1.70;99.90;;;;;;5092194;28;20054;-67
2021/01/07 09:42:42;;;;;;;13.70;9.70;;;1.80;99.90;;;;;;5092182;28;20073;-69
2021/01/07 09:45:09;;;;;;;15.80;9.23;;;1.80;99.90;;;;;;5091501;28;20123;-68
2021/01/07 09:47:36;;;;;;;14.40;9.15;;;1.90;99.90;;;;;;5092626;28;20392;-69
2021/01/07 09:50:07;;;;;;;13.55;8.52;;;1.90;99.90;;;;;;5074186;28;20032;-66
2021/01/07 09:52:33;;;;;;;14.00;9.73;;;2.00;99.90;;;;;;5074126;28;20024;-69
2021/01/07 09:55:00;;;;;;;15.98;9.07;;;2.00;99.90;;;;;;5092275;28;20043;-68
2021/01/07 09:57:26;;;;;;;13.77;8.90;;;2.00;99.90;;;;;;5081439;28;20127;-70
2021/01/07 09:59:51;;;;;;;13.90;9.27;;;2.10;99.90;;;;;;5072362;28;20178;-69
2021/01/07 10:02:17;;;;;;;14.93;8.98;;;2.10;99.90;;;;;;5070609;28;20509;-70
2021/01/07 10:04:44;;;;;;;12.57;8.40;;;2.20;99.90;;;;;;5071769;28;20084;-70
2021/01/07 10:07:10;;;;;;;14.75;9.25;;;2.20;99.90;;;;;;5077387;28;20027;-71
2021/01/07 10:09:36;;;;;;;14.23;9.40;;;2.20;99.90;;;;;;5091077;28;20032;-66
2021/01/07 10:12:02;;;;;;;15.30;10.10;;;2.20;99.90;;;;;;5086244;28;20034;-68
2021/01/07 10:14:30;;;;;;;13.70;9.85;;;2.20;99.90;;;;;;5069881;28;20021;-71
2021/01/07 10:17:00;;;;;;;17.55;9.13;;;2.20;99.90;;;;;;5072357;28;20020;-71
2021/01/07 10:19:29;;;;;;;14.65;9.75;;;2.20;99.90;;;;;;5071683;28;20605;-70
2021/01/07 10:22:08;;;;;;;13.98;8.95;;;2.30;99.90;;;;;;5070499;28;20025;-71
2021/01/07 10:24:46;;;;;;;13.95;8.88;;;2.20;99.90;;;;;;5071748;28;20024;-70
2021/01/07 10:27:17;;;;;;;17.52;9.80;;;2.30;99.90;;;;;;5070574;28;20036;-71
2021/01/07 10:29:44;;;;;;;14.57;9.43;;;2.30;99.90;;;;;;5087591;28;20093;-72
2021/01/07 10:32:12;;;;;;;14.73;9.90;;;2.30;99.90;;;;;;5090215;28;20104;-72
2021/01/07 10:34:45;;;;;;;12.35;8.90;;;2.40;99.90;;;;;;5091592;28;20027;-71
2021/01/07 10:37:12;;;;;;;13.70;8.48;;;2.50;99.90;;;;;;5090980;28;20111;-71
2021/01/07 10:39:41;;;;;;;12.13;8.48;;;2.50;99.90;;;;;;5091682;28;20077;-70
2021/01/07 10:42:10;;;;;;;14.68;8.60;;;2.50;99.60;;;;;;5090463;28;20032;-68
2021/01/07 10:44:38;;;;;;;13.13;8.07;;;2.60;98.30;;;;;;5073544;28;20032;-69
2021/01/07 10:47:06;;;;;;;10.15;7.25;;;2.60;97.60;;;;;;5091309;28;20044;-71
2021/01/07 10:49:34;;;;;;;13.05;8.43;;;2.60;97.80;;;;;;5091866;28;20030;-70
2021/01/07 10:52:22;;;;;;;11.50;7.95;;;2.60;97.00;;;;;;5091540;28;20051;-70
2021/01/07 10:55:05;;;;;;;13.63;7.97;;;2.70;95.50;;;;;;5091656;28;20039;-68
2021/01/07 10:58:09;;;;;;;10.52;7.15;;;2.60;95.30;;;;;;5079222;28;20055;-69
2021/01/07 11:01:17;;;;;;;11.18;7.63;;;2.70;93.10;;;;;;5058844;28;20045;-71
2021/01/07 11:04:06;;;;;;;11.52;7.97;;;2.70;93.50;;;;;;5071214;28;20085;-70
2021/01/07 11:06:34;;;;;;;13.80;8.98;;;2.80;95.60;;;;;;5072036;28;20044;-70
2021/01/07 11:09:12;;;;;;;11.75;7.97;;;2.80;96.30;;;;;;5094836;28;20112;-71
2021/01/07 11:11:45;;;;;;;14.50;8.40;;;2.90;96.90;;;;;;5091450;28;20098;-70
2021/01/07 11:14:18;;;;;;;15.50;8.95;;;3.00;95.40;;;;;;5090494;28;20473;-71
2021/01/07 11:16:49;;;;;;;13.52;8.98;;;3.00;95.60;;;;;;5091249;28;20032;-72
2021/01/07 11:19:22;;;;;;;12.73;8.23;;;3.00;96.00;;;;;;5090872;28;20500;-72
2021/01/07 11:22:18;;;;;;;11.13;7.05;;;3.10;96.30;;;;;;5091049;28;20397;-71
2021/01/07 11:24:47;;;;;;;12.05;7.43;;;3.10;95.20;;;;;;5090957;28;20120;-72
2021/01/07 11:27:14;;;;;;;10.38;7.05;;;3.20;93.00;;;;;;5075759;28;20069;-71
2021/01/07 11:29:40;;;;;;;10.52;7.53;;;3.10;93.00;;;;;;5071615;28;20044;-69
2021/01/07 11:32:07;;;;;;;10.98;7.32;;;3.20;93.00;;;;;;5070577;28;20032;-67
2021/01/07 11:34:33;;;;;;;7.72;5.47;;;3.20;90.00;;;;;;5071181;28;20029;-71
2021/01/07 11:37:35;;;;;;;9.40;5.90;;;3.30;86.00;;;;;;5070540;28;20119;-73
2021/01/07 11:40:07;;;;;;;9.43;5.63;;;3.30;86.80;;;;;;5070700;28;20087;-74
2021/01/07 11:42:35;;;;;;;9.20;5.97;;;3.20;85.00;;;;;;5070402;28;20020;-68
2021/01/07 11:45:21;;;;;;;9.20;5.80;;;3.20;87.10;;;;;;5079458;28;20024;-70
2021/01/07 11:47:54;;;;;;;8.95;5.88;;;3.20;88.30;;;;;;5070527;28;20053;-72
2021/01/07 11:50:24;;;;;;;12.40;6.38;;;3.20;86.30;;;;;;5056550;28;20028;-72
2021/01/07 11:52:52;;;;;;;11.90;7.57;;;3.20;87.70;;;;;;5075574;28;20085;-71
2021/01/07 11:55:19;;;;;;;9.38;6.22;;;3.10;90.40;;;;;;5080015;28;20027;-72
2021/01/07 11:57:46;;;;;;;8.77;6.05;;;3.10;88.30;;;;;;5063783;28;20028;-73
2021/01/07 12:00:15;;;;;;;9.65;6.88;;;3.00;88.90;;;;;;5055496;28;20041;-70
2021/01/07 12:02:42;;;;;;;11.25;6.65;;;3.00;90.20;;;;;;5061807;28;20044;-69
2021/01/07 12:05:13;;;;;;;10.30;6.68;;;3.00;89.20;;;;;;5086629;28;20036;-69
2021/01/07 12:07:43;;;;;;;10.07;7.20;;;3.00;90.40;;;;;;5076302;28;20038;-71
2021/01/07 12:10:09;;;;;;;12.30;7.68;;;3.00;90.80;;;;;;5073649;28;20024;-68
2021/01/07 12:13:05;;;;;;;10.23;6.90;;;3.00;91.10;;;;;;5081584;28;20024;-71
2021/01/07 12:15:34;;;;;;;9.77;6.90;;;3.00;90.00;;;;;;5057412;28;20043;-73
2021/01/07 12:18:01;;;;;;;9.77;6.93;;;3.00;90.70;;;;;;5094074;28;20016;-69
2021/01/07 12:20:28;;;;;;;9.35;5.90;;;3.00;90.00;;;;;;5075340;28;20043;-70
2021/01/07 12:22:55;;;;;;;10.32;7.03;;;2.90;90.40;;;;;;5093972;28;20137;-72
2021/01/07 12:25:22;;;;;;;10.88;6.88;;;2.90;90.80;;;;;;5093516;28;20368;-72
2021/01/07 12:27:48;;;;;;;10.25;7.22;;;3.00;91.50;;;;;;5087690;28;20024;-71
2021/01/07 12:30:17;;;;;;;10.88;7.40;;;3.00;92.10;;;;;;5078898;28;20547;-71
2021/01/07 12:32:54;;;;;;;10.70;7.05;;;3.10;91.10;;;;;;5109044;28;20024;-71
2021/01/07 12:35:24;;;;;;;9.95;7.18;;;3.10;91.00;;;;;;5071152;28;20473;-72
2021/01/07 12:38:34;;;;;;;9.82;7.00;;;3.10;91.20;;;;;;5072429;28;20489;-71
2021/01/07 12:41:04;;;;;;;12.73;7.63;;;3.10;90.80;;;;;;5078161;28;20113;-73
2021/01/07 12:43:34;;;;;;;11.57;7.25;;;3.00;91.00;;;;;;5072520;28;20783;-72
2021/01/07 12:46:01;;;;;;;;;;;3.00;91.00;;;;;;5074207;28;20029;-70
2021/01/07 12:48:29;;;;;;;11.88;7.90;;;3.00;90.80;;;;;;5072755;28;19987;-72
2021/01/07 12:50:55;;;;;;;11.90;7.93;;;2.90;91.70;;;;;;5075450;28;20040;-71
2021/01/07 12:53:22;;;;;;;14.75;8.52;;;2.90;92.70;;;;;;5092629;28;20028;-70
2021/01/07 12:55:49;;;;;;;11.77;7.40;;;2.90;92.30;;;;;;5092912;28;20030;-71
2021/01/07 12:58:24;;;;;;;14.43;9.07;;;2.90;93.10;;;;;;5092101;28;20465;-71